This is the latest recevied weather packets stored in our database for station/object KB3UMW-13. If no packets are shown the sender has not sent any weather packets the latest 10 day(s).
| Time | Temp. | Humidity | Pressure | Rain* | Wind** | Luminosity | Snow |
|---|---|---|---|---|---|---|---|
| 1777932522 | 18.33° C | 55% | 1010.7 hPa | 0 mm | - | 68 W/m² | - |
| 1777932218 | 18.33° C | 55% | 1010.7 hPa | 0 mm | - | 78 W/m² | - |
| 1777931916 | 18.33° C | 57% | 1010.8 hPa | 0 mm | - | 118 W/m² | - |
| 1777931612 | 18.33° C | 56% | 1011 hPa | 0 mm | - | 160 W/m² | - |
| 1777931308 | 18.33° C | 56% | 1011 hPa | 0 mm | - | 150 W/m² | - |
| 1777931005 | 18.33° C | 54% | 1010.7 hPa | 0 mm | - | 112 W/m² | - |
| 1777930702 | 18.33° C | 54% | 1010.6 hPa | 0 mm | - | 144 W/m² | - |
| 1777930398 | 18.33° C | 53% | 1011 hPa | 0 mm | - | 131 W/m² | - |
| 1777930095 | 18.33° C | 55% | 1010.7 hPa | 0 mm | - | 152 W/m² | - |
| 1777929791 | 18.89° C | 55% | 1010.7 hPa | 0 mm | - | 150 W/m² | - |
| 1777929489 | 18.89° C | 51% | 1010.6 hPa | 0 mm | - | 140 W/m² | - |
| 1777929185 | 18.89° C | 52% | 1010.6 hPa | 0 mm | - | 115 W/m² | - |
| 1777928882 | 18.89° C | 51% | 1010.7 hPa | 0 mm | - | 106 W/m² | - |
| 1777928579 | 19.44° C | 49% | 1010.5 hPa | 0 mm | - | 141 W/m² | - |
| 1777928277 | 19.44° C | 50% | 1010.5 hPa | 0 mm | - | 179 W/m² | - |
| 1777927974 | 20.56° C | 51% | 1010.4 hPa | 0 mm | - | 344 W/m² | - |
| 1777927672 | 21.67° C | 46% | 1010.5 hPa | 0 mm | - | 232 W/m² | - |
| 1777927370 | 21.11° C | 47% | 1010.4 hPa | 0 mm | - | 645 W/m² | - |
| 1777927069 | 20° C | 49% | 1010.4 hPa | 0 mm | - | 656 W/m² | - |
| 1777926767 | 21.11° C | 47% | 1010.4 hPa | 0 mm | - | 613 W/m² | - |
| 1777926467 | 21.11° C | 49% | 1010.5 hPa | 0 mm | - | 641 W/m² | - |
| 1777926164 | 21.11° C | 48% | 1010.3 hPa | 0 mm | - | 742 W/m² | - |
| 1777925861 | 20° C | 49% | 1010.3 hPa | 0 mm | - | 475 W/m² | - |
| 1777925558 | 20° C | 50% | 1010.6 hPa | 0 mm | - | 745 W/m² | - |
| 1777925256 | 21.67° C | 46% | 1010.4 hPa | 0 mm | - | 229 W/m² | - |
* Rain latest hour (hover to see other rain measurements)
** Current wind speed in m/s (hover to see current wind gust speed)